Flight Track Log - Related Links

Times and Time Zones

All times are in EDT time to prevent confusion due to time zone crossing. See the CCA4488 flight status page for this flight to view local times or setup timezone preferences in your user account.

Time Position Orientation Groundspeed Altitude Reporting Facility
EDT Latitude Longitude Course Direction KTS MPH feet Rate Location/Type
Sat 08:06:48 PM 32.5160 104.1310 178° South 430 495 24,600  Level FlightAware ADS-B
Sat 08:07:34 PM 32.4230 104.1320 179° South 428 493 24,600  Level FlightAware ADS-B
Sat 08:08:16 PM 32.3400 104.1330 179° South 429 494 24,600  Level FlightAware ADS-B
Sat 08:08:58 PM 32.2560 104.1340 179° South 430 495 24,600  Level FlightAware ADS-B
Sat 08:09:42 PM 32.1690 104.1430 175° South 430 495 24,600  Level FlightAware ADS-B
Sat 08:10:24 PM 32.0850 104.1520 175° South 434 499 24,600  Level FlightAware ADS-B
Sat 08:11:07 PM 32.0000 104.1610 175° South 427 491 24,600  Level FlightAware ADS-B
Sat 08:11:47 PM 31.9220 104.1690 175° South 426 490 24,600  Level FlightAware ADS-B
Sat 08:12:30 PM 31.8360 104.1860 170° South 427 491 24,600  Level FlightAware ADS-B
Sat 08:13:10 PM 31.7590 104.2080 166° South 427 491 24,600  Level FlightAware ADS-B
Sat 08:13:54 PM 31.6740 104.2320 166° South 425 489 24,600  Level FlightAware ADS-B
Sat 08:14:28 PM 31.6100 104.2480 168° South 431 496 24,600 -462 Level FlightAware ADS-B
Sat 08:15:12 PM 31.5240 104.2720 167° South 422 486 24,000 -1,286 Descending FlightAware ADS-B
Sat 08:15:52 PM 31.4490 104.2920 167° South 415 478 22,800 -1,950 Descending FlightAware ADS-B
Sat 08:16:32 PM 31.3730 104.3100 169° South 405 466 21,400 -2,000 Descending FlightAware ADS-B
Sat 08:17:16 PM 31.2940 104.3140 178° South 391 450 20,000 -2,000 Descending FlightAware ADS-B
Sat 08:17:56 PM 31.2210 104.3210 175° South 371 427 18,600 -1,929 Descending FlightAware ADS-B
Sat 08:18:40 PM 31.1520 104.3360 169° South 339 390 17,300 -1,756 Descending FlightAware ADS-B
Sat 08:19:18 PM 31.0940 104.3480 170° South 323 372 16,200 -2,763 Descending FlightAware ADS-B
Sat 08:19:56 PM 31.0350 104.3590 171° South 330 380 13,800 -3,071 Descending FlightAware ADS-B
Sat 08:20:42 PM 30.9670 104.3720 171° South 331 381 11,900 -1,463 Descending FlightAware ADS-B
Sat 08:21:18 PM 30.9160 104.3820 170° South 290 334 11,800 -79 Descending FlightAware ADS-B
Sat 08:21:58 PM 30.8650 104.3930 170° South 264 304 11,800 -304 Level FlightAware ADS-B
Sat 08:22:37 PM 30.8230 104.4090 162° South 244 281 11,400 -1,200 Descending FlightAware ADS-B
Sat 08:23:18 PM 30.7770 104.4270 161° South 252 290 10,200 -1,684 Descending FlightAware ADS-B
Sat 08:23:34 PM 30.7590 104.4340 162° South 249 287 9,800 -1,500 Descending FlightAware ADS-B
Sat 08:24:02 PM 30.7280 104.4460 162° South 251 289 9,100 -724 Descending FlightAware ADS-B
Sat 08:24:32 PM 30.6970 104.4570 163° South 222 255 9,100  Level FlightAware ADS-B
Sat 08:25:13 PM 30.6600 104.4520 187° South 211 243 9,100  Level FlightAware ADS-B
Sat 08:25:28 PM 30.6540 104.4360 246° West 214 246 9,100  Level FlightAware ADS-B
Sat 08:25:54 PM 30.6480 104.4070 256° West 213 245 9,100  Level FlightAware ADS-B
Sat 08:26:17 PM 30.6440 104.3820 259° West 209 241 9,100  Level FlightAware ADS-B
Sat 08:26:40 PM 30.6390 104.3580 256° West 187 215 9,100 -632 Level FlightAware ADS-B
Sat 08:27:14 PM 30.6330 104.3250 258° West 189 217 8,500 -1,174 Descending FlightAware ADS-B
Sat 08:27:26 PM 30.6310 104.3130 259° West 190 219 8,200 -923 Descending FlightAware ADS-B
Sat 08:27:53 PM 30.6260 104.2870 257° West 179 206 7,900 -923 Descending FlightAware ADS-B
Sat 08:28:18 PM 30.6210 104.2630 256° West 184 212 7,400 -1,273 Descending FlightAware ADS-B
Sat 08:28:26 PM 30.6200 104.2550 262° West 187 215 7,200 -450 Descending FlightAware ADS-B
Sat 08:28:58 PM 30.6350 104.2310 306° West 174 200 7,100 -136 Descending FlightAware ADS-B
Sat 08:29:10 PM 30.6420 104.2250 324° Northwest 174 200 7,100 -750 Level FlightAware ADS-B
Sat 08:29:38 PM 30.6610 104.2090 324° Northwest 179 206 6,600 -1,071 Descending FlightAware ADS-B
Sat 08:30:06 PM 30.6800 104.1930 324° Northwest 180 207 6,100 -429 Descending FlightAware ADS-B
Sat 08:30:34 PM 30.7010 104.1820 336° Northwest 173 199 6,200 964 Climbing FlightAware ADS-B
Sat 08:31:02 PM 30.7240 104.1880 13° North 189 217 7,000 964 Climbing FlightAware ADS-B
Sat 08:31:30 PM 30.7490 104.1970 17° North 200 230 7,100 136 Climbing FlightAware ADS-B
Sat 08:31:46 PM 30.7620 104.2020 18° North 215 247 7,100  Level FlightAware ADS-B
Sat 08:32:11 PM 30.7870 104.2110 17° North 241 277 7,100 577 Level FlightAware ADS-B
Sat 08:32:38 PM 30.8180 104.2230 18° North 256 295 7,600 900 Climbing FlightAware ADS-B
Sat 08:33:11 PM 30.8550 104.2380 19° North 271 312 8,000 724 Climbing FlightAware ADS-B
Sat 08:33:36 PM 30.8860 104.2500 18° North 270 311 8,300 1,297 Climbing FlightAware ADS-B
Sat 08:33:48 PM 30.8980 104.2600 36° Northeast 277 319 8,800 2,786 Climbing FlightAware ADS-B
Sat 08:34:04 PM 30.9100 104.2800 55° Northeast 280 322 9,600 2,800 Climbing FlightAware ADS-B
Sat 08:34:48 PM 30.9350 104.3430 65° Northeast 303 349 11,600 2,721 Climbing FlightAware ADS-B
Sat 08:35:30 PM 30.9590 104.4080 67° East 321 369 13,500 2,341 Climbing FlightAware ADS-B
Sat 08:36:10 PM 30.9830 104.4720 66° East 344 396 14,800 1,357 Climbing FlightAware ADS-B
Sat 08:36:54 PM 31.0150 104.5550 66° East 399 459 15,400 1,429 Climbing FlightAware ADS-B
Sat 08:37:34 PM 31.0440 104.6330 67° East 395 455 16,800 1,098 Climbing FlightAware ADS-B
Sat 08:38:16 PM 31.0660 104.7190 73° East 399 459 16,900 61 Climbing FlightAware ADS-B
Sat 08:39:12 PM 31.0610 104.8280 93° East 339 390 16,900 735 Level FlightAware ADS-B
Sat 08:39:54 PM 31.0650 104.9050 87° East 335 386 18,100 1,800 Climbing FlightAware ADS-B
Sat 08:40:32 PM 31.0680 104.9740 87° East 348 400 19,300 2,077 Climbing FlightAware ADS-B
Sat 08:41:12 PM 31.0710 105.0500 87° East 356 410 20,800 2,143 Climbing FlightAware ADS-B
Sat 08:41:56 PM 31.0750 105.1360 87° East 364 419 22,300 1,622 Climbing FlightAware ADS-B
Sat 08:42:26 PM 31.0770 105.1960 88° East 364 419 22,800 395 Climbing FlightAware ADS-B
Sat 08:43:12 PM 31.0810 105.2850 87° East 366 421 22,800  Level FlightAware ADS-B
Sat 08:43:52 PM 31.0850 105.3640 87° East 366 421 22,800 -357 Level FlightAware ADS-B
Sat 08:44:36 PM 31.0880 105.4510 88° East 364 419 22,300 -786 Descending FlightAware ADS-B
Sat 08:45:16 PM 31.0910 105.5300 87° East 360 414 21,700 -857 Descending FlightAware ADS-B
Sat 08:46:00 PM 31.0950 105.6140 87° East 349 402 21,100 -565 Descending FlightAware ADS-B
Sat 08:46:41 PM 31.0980 105.6870 87° East 345 397 20,900 -158 Descending FlightAware ADS-B
Sat 08:47:16 PM 31.1010 105.7540 87° East 345 397 20,900  Level FlightAware ADS-B
Sat 08:47:54 PM 31.0930 105.8220 98° East 338 389 20,900  Level FlightAware ADS-B
Sat 08:48:10 PM 31.0760 105.8450 131° Southeast 356 410 20,900  Level FlightAware ADS-B
Sat 08:48:53 PM 31.0290 105.9060 132° Southeast 377 434 20,900  Level FlightAware ADS-B
Sat 08:49:32 PM 30.9910 105.9570 131° Southeast 377 434 20,900  Level FlightAware ADS-B
Sat 08:50:08 PM 30.9560 106.0040 131° Southeast 377 434 20,900  Level FlightAware ADS-B
Sat 08:50:56 PM 30.9090 106.0670 131° Southeast 377 434 20,900  Level FlightAware ADS-B
Sat 08:51:33 PM 30.8730 106.1150 131° Southeast 377 434 20,900 -135 Level FlightAware ADS-B
Sat 08:52:25 PM 30.7860 106.2190 134° Southeast 372 428 20,700 -121 Descending FlightAware ADS-B
Sat 08:53:12 PM 30.7200 106.2870 138° Southeast 369 425 20,700 -60 Level FlightAware ADS-B
Sat 08:54:05 PM 30.6600 106.3540 136° Southeast 368 423 20,600 -59 Descending FlightAware ADS-B
Sat 08:54:53 PM 30.6100 106.4100 136° Southeast 368 423 20,600  Level FlightAware ADS-B
Sat 08:55:29 PM 30.5720 106.4520 136° Southeast 368 423 20,600  Level FlightAware ADS-B
Sat 08:56:17 PM 30.5220 106.5080 136° Southeast 368 423 20,600  Level FlightAware ADS-B
Sat 08:56:53 PM 30.4850 106.5500 136° Southeast 368 423 20,600  Level FlightAware ADS-B
Sat 08:59:00 PM 30.4926 106.3812 273° West  Level Estimated
Sat 09:00:00 PM 30.4962 106.3015 273° West  Level Estimated
Sat 09:01:00 PM 30.4997 106.2217 273° West  Level Estimated
Sat 09:02:00 PM 30.5031 106.1420 273° West  Level Estimated
Sat 09:03:00 PM 30.5065 106.0622 273° West  Level Estimated
Sat 09:04:00 PM 30.5098 105.9825 273° West  Level Estimated
Sat 09:05:00 PM 30.5131 105.9027 273° West  Level Estimated
Sat 09:06:00 PM 30.5164 105.8229 273° West  Level Estimated
Sat 09:07:00 PM 30.5196 105.7431 273° West  Level Estimated
Sat 09:08:00 PM 30.5227 105.6633 273° West  Level Estimated
Sat 09:09:00 PM 30.5258 105.5835 273° West  Level Estimated
Sat 09:10:00 PM 30.5288 105.5037 273° West  Level Estimated
Sat 09:11:00 PM 30.5318 105.4239 273° West  Level Estimated
Sat 09:12:00 PM 30.5348 105.3441 272° West  Level Estimated
Sat 09:13:00 PM 30.5377 105.2643 272° West  Level Estimated
Sat 09:14:00 PM 30.5405 105.1845 272° West  Level Estimated
Sat 09:15:00 PM 30.5433 105.1047 272° West  Level Estimated
Sat 09:16:00 PM 30.5461 105.0248 272° West  Level Estimated
Sat 09:17:00 PM 30.5488 104.9450 272° West  Level Estimated
Sat 09:18:00 PM 30.5515 104.8652 272° West  Level Estimated
Sat 09:19:00 PM 30.5541 104.7853 272° West  Level Estimated
Sat 09:20:00 PM 30.5566 104.7055 272° West  Level Estimated
Sat 09:21:00 PM 30.5592 104.6256 272° West  Level Estimated
Sat 09:22:00 PM 30.5616 104.5458 272° West  Level Estimated
Sat 09:23:00 PM 30.5640 104.4659 272° West  Level Estimated
Sat 09:24:00 PM 30.5664 104.3861 272° West  Level Estimated
Sat 09:25:00 PM 30.5687 104.3062 272° West  Level Estimated
Sat 09:26:00 PM 30.5710 104.2263 272° West  Level Estimated
Sat 11:28:07 PM 30.5440 103.9460 272° West 26 30  Level FlightAware ADS-B
Sat 11:28:34 PM 30.5470 103.9470 16° North 27 31  Level FlightAware ADS-B
Sat 11:28:46 PM 30.5480 103.9480 41° Northeast 34 39  Level FlightAware ADS-B
Sat 11:29:15 PM 30.5490 103.9460 300° West 16 18  Level FlightAware ADS-B
Sat 11:29:30 PM 30.5500 103.9460 360° North 19 22  Level FlightAware ADS-B
Sat 11:29:58 PM 30.5530 103.9450 344° North 24 28  Level FlightAware ADS-B
Sat 11:30:24 PM 30.5560 103.9430 330° Northwest 27 31  Level FlightAware ADS-B
Sat 11:30:51 PM 30.5580 103.9420 337° Northwest 19 22  Level FlightAware ADS-B
Sat 11:31:25 PM 30.5610 103.9430 16° North 20 23  Level FlightAware ADS-B
Sat 11:32:07 PM 30.5650 103.9450 23° Northeast 17 20  Level FlightAware ADS-B
Sat 11:32:49 PM 30.5670 103.9460 23° Northeast 11 13  Level FlightAware ADS-B
Sat 11:36:09 PM 30.5680 103.9510 77° East 26 30  Level FlightAware ADS-B
Sat 11:36:49 PM 30.5660 103.9550 120° Southeast 26 30  Level FlightAware ADS-B
Sat 11:37:11 PM 30.5650 103.9540 221° Southwest 31 36  Level FlightAware ADS-B
Sat 11:37:37 PM 30.5630 103.9540 180° South 22 25  Level FlightAware ADS-B

Login

Don't have an account? Register now (free) for customized features, flight alerts, and more!